Time,TemperatureF,DewpointF,PressureIn,WindDirection,WindDirectionDegrees,WindSpeedMPH,WindSpeedGustMPH,Humidity,HourlyPrecipIn,Conditions,Clouds,dailyrainin,SoftwareType,DateUTC
2014-02-23 00:00:00,47.4,23.0,29.86,South,180,14.0,26.0,38,0.00,,,-99.99,WeatherLink 5.6,2014-02-23 05:00:00,
2014-02-23 00:30:00,47.1,23.4,29.86,South,180,14.0,26.0,39,0.00,,,-99.99,WeatherLink 5.6,2014-02-23 05:30:00,
2014-02-23 01:00:00,46.9,23.8,29.86,South,180,14.0,26.0,40,0.00,,,-99.99,WeatherLink 5.6,2014-02-23 06:00:00,
2014-02-23 01:30:00,45.9,23.5,29.86,South,180,11.0,25.0,41,0.00,,,-99.99,WeatherLink 5.6,2014-02-23 06:30:00,
2014-02-23 02:00:00,45.9,23.5,29.86,South,180,7.0,19.0,41,0.00,,,-99.99,WeatherLink 5.6,2014-02-23 07:00:00,
2014-02-23 02:30:00,45.4,23.0,29.86,South,180,5.0,15.0,41,0.00,,,-99.99,WeatherLink 5.6,2014-02-23 07:30:00,
2014-02-23 03:00:00,45.1,22.8,29.86,South,180,1.0,10.0,41,0.00,,,-99.99,WeatherLink 5.6,2014-02-23 08:00:00,
2014-02-23 03:30:00,46.1,22.5,29.85,South,180,2.0,12.0,39,0.00,,,-99.99,WeatherLink 5.6,2014-02-23 08:30:00,
2014-02-23 04:00:00,45.9,22.9,29.85,South,180,1.0,5.0,40,0.00,,,-99.99,WeatherLink 5.6,2014-02-23 09:00:00,
2014-02-23 04:30:00,46.5,22.8,29.86,South,180,1.0,10.0,39,0.00,,,-99.99,WeatherLink 5.6,2014-02-23 09:30:00,
2014-02-23 05:00:00,46.3,23.3,29.87,South,180,1.0,12.0,40,0.00,,,-99.99,WeatherLink 5.6,2014-02-23 10:00:00,
2014-02-23 05:30:00,46.1,23.1,29.88,South,180,1.0,12.0,40,0.00,,,-99.99,WeatherLink 5.6,2014-02-23 10:30:00,
2014-02-23 06:00:00,46.5,24.0,29.88,SW,225,2.0,15.0,41,0.00,,,-99.99,WeatherLink 5.6,2014-02-23 11:00:00,
2014-02-23 06:30:00,47.0,26.2,29.88,SW,225,5.0,17.0,44,0.00,,,-99.99,WeatherLink 5.6,2014-02-23 11:30:00,
2014-02-23 07:00:00,46.5,25.7,29.88,SW,225,4.0,17.0,44,0.00,,,-99.99,WeatherLink 5.6,2014-02-23 12:00:00,
2014-02-23 07:30:00,44.4,24.4,29.89,South,180,3.0,16.0,45,0.00,,,-99.99,WeatherLink 5.6,2014-02-23 12:30:00,
2014-02-23 08:00:00,44.0,24.0,29.89,SSE,157,2.0,7.0,45,0.00,,,-99.99,WeatherLink 5.6,2014-02-23 13:00:00,
2014-02-23 08:30:00,45.9,25.2,29.89,SSE,157,2.0,9.0,44,0.00,,,-99.99,WeatherLink 5.6,2014-02-23 13:30:00,
2014-02-23 09:00:00,46.8,25.5,29.88,South,180,4.0,13.0,43,0.00,,,-99.99,WeatherLink 5.6,2014-02-23 14:00:00,
2014-02-23 09:30:00,47.0,26.2,29.89,South,180,5.0,15.0,44,0.00,,,-99.99,WeatherLink 5.6,2014-02-23 14:30:00,
2014-02-23 10:00:00,48.0,27.1,29.88,South,180,5.0,13.0,44,0.00,,,-99.99,WeatherLink 5.6,2014-02-23 15:00:00,
2014-02-23 10:30:00,50.2,29.7,29.86,South,180,3.0,11.0,45,0.00,,,-99.99,WeatherLink 5.6,2014-02-23 15:30:00,
2014-02-23 11:00:00,50.9,29.2,29.86,South,180,4.0,12.0,43,0.00,,,-99.99,WeatherLink 5.6,2014-02-23 16:00:00,
2014-02-23 11:30:00,52.6,30.7,29.86,South,180,4.0,13.0,43,0.00,,,-99.99,WeatherLink 5.6,2014-02-23 16:30:00,
2014-02-23 12:00:00,54.1,32.6,29.85,South,180,3.0,12.0,44,0.00,,,-99.99,WeatherLink 5.6,2014-02-23 17:00:00,
2014-02-23 12:30:00,55.4,29.5,29.83,SW,225,3.0,15.0,37,0.00,,,-99.99,WeatherLink 5.6,2014-02-23 17:30:00,
2014-02-23 13:00:00,55.8,30.5,29.81,West,270,2.0,12.0,38,0.00,,,-99.99,WeatherLink 5.6,2014-02-23 18:00:00,
2014-02-23 13:30:00,56.0,31.4,29.80,WNW,292,4.0,16.0,39,0.00,,,-99.99,WeatherLink 5.6,2014-02-23 18:30:00,
2014-02-23 14:00:00,57.1,31.0,29.78,WSW,247,6.0,18.0,37,0.00,,,-99.99,WeatherLink 5.6,2014-02-23 19:00:00,
2014-02-23 14:30:00,57.5,33.3,29.77,South,180,4.0,16.0,40,0.00,,,-99.99,WeatherLink 5.6,2014-02-23 19:30:00,
2014-02-23 15:00:00,57.7,34.1,29.76,SSE,157,4.0,14.0,41,0.00,,,-99.99,WeatherLink 5.6,2014-02-23 20:00:00,
2014-02-23 15:30:00,59.1,34.8,29.75,South,180,4.0,21.0,40,0.00,,,-99.99,WeatherLink 5.6,2014-02-23 20:30:00,
2014-02-23 16:00:00,58.1,33.2,29.75,South,180,5.0,17.0,39,0.00,,,-99.99,WeatherLink 5.6,2014-02-23 21:00:00,
2014-02-23 16:30:00,57.7,34.7,29.75,South,180,2.0,11.0,42,0.00,,,-99.99,WeatherLink 5.6,2014-02-23 21:30:00,
2014-02-23 17:00:00,57.5,33.3,29.75,SSW,202,4.0,16.0,40,0.00,,,-99.99,WeatherLink 5.6,2014-02-23 22:00:00,
2014-02-23 17:30:00,56.9,33.4,29.75,West,270,5.0,14.0,41,0.00,,,-99.99,WeatherLink 5.6,2014-02-23 22:30:00,
2014-02-23 18:00:00,55.1,32.4,29.76,NW,315,5.0,14.0,42,0.00,,,-99.99,WeatherLink 5.6,2014-02-23 23:00:00,
2014-02-23 18:30:00,50.9,32.9,29.79,NW,315,4.0,16.0,50,0.00,,,-99.99,WeatherLink 5.6,2014-02-23 23:30:00,
2014-02-23 19:00:00,47.3,32.4,29.82,NNW,337,6.0,17.0,56,0.00,,,-99.99,WeatherLink 5.6,2014-02-24 00:00:00,
2014-02-23 19:30:00,45.6,32.1,29.83,NNW,337,5.0,14.0,59,0.00,,,-99.99,WeatherLink 5.6,2014-02-24 00:30:00,
2014-02-23 20:00:00,43.7,32.3,29.85,NNW,337,7.0,16.0,64,0.00,,,-99.99,WeatherLink 5.6,2014-02-24 01:00:00,
2014-02-23 20:30:00,41.9,32.8,29.87,NNW,337,8.0,18.0,70,0.00,,,-99.99,WeatherLink 5.6,2014-02-24 01:30:00,
2014-02-23 21:00:00,39.6,32.7,29.87,NNW,337,7.0,20.0,76,0.00,,,-99.99,WeatherLink 5.6,2014-02-24 02:00:00,
2014-02-23 21:30:00,38.7,32.7,29.90,NNW,337,6.0,14.0,79,0.00,,,-99.99,WeatherLink 5.6,2014-02-24 02:30:00,
2014-02-23 22:00:00,38.2,32.9,29.90,NNW,337,5.0,10.0,81,0.00,,,-99.99,WeatherLink 5.6,2014-02-24 03:00:00,
2014-02-23 22:30:00,37.0,33.2,29.89,NNW,337,6.0,13.0,86,0.00,,,-99.99,WeatherLink 5.6,2014-02-24 03:30:00,
2014-02-23 23:00:00,36.1,33.2,29.91,NNW,337,6.0,13.0,89,0.00,,,-99.99,WeatherLink 5.6,2014-02-24 04:00:00,
2014-02-23 23:30:00,35.2,32.8,29.88,NNW,337,4.0,12.0,91,0.00,,,-99.99,WeatherLink 5.6,2014-02-24 04:30:00,